Weather

DAILY 7 DAY TOTAL
onrain

Note: Some stations are located near irrigated fields and may also report irrigation

Alliston Mount Forest Blyth Guelph Grand Bend Strathroy Woodstock Belmont Simcoe Leamington Chatham West Lorne






Leamington-Base - Historical Weather Data
Date Max Temp (°C) Min Temp (°C) Avg Temp (°C) Rain (mm) 7Day Rain(mm) Total Rain(mm) Avg RH (%)
5/27/2020 25.2 12.6 20.0 0.0 5.8 75.6 72.8
5/26/2020 28.7 11.0 20.8 0.0 5.8 75.6 70.2
5/25/2020 26.0 10.8 19.1 0.0 8.0 75.6 70.8
5/24/2020 20.6 6.2 13.4 0.0 26.6 75.6 74.4
5/23/2020 10.0 1.8 6.2 0.0 39.2 75.6 88.6
5/22/2020 9.2 3.8 6.9 5.8 39.2 75.6 93.5
5/21/2020 8.9 -2.3 3.9 0.0 41.8 69.8 53.8
5/20/2020 -2.4 -11.4 -8.2 0.0 61.4 69.8 54.3
5/19/2020 -11.4 -16.1 -14.0 2.2 61.4 69.8 81.5
5/18/2020 -15.3 -16.7 -16.1 18.6 59.2 67.6 99.1
5/17/2020 -13.5 -15.8 -14.1 12.6 43.6 49.0 78.7
5/16/2020 -14.6 -17.8 -16.4 0.0 33.2 36.4 81.3
5/15/2020 -15.8 -26.7 -19.3 8.4 33.2 36.4 92.4
5/14/2020 11.7 -18.3 1.8 19.6 24.8 28.0 83.5
5/13/2020 11.4 -1.3 6.1 0.0 5.2 8.4 56.2
5/12/2020 15.1 0.4 8.0 0.0 5.2 8.4 53.6
5/11/2020 7.8 -1.5 3.6 3.0 5.2 8.4 76.8
5/10/2020 16.0 1.1 9.1 2.2 2.2 5.4 65.5
5/9/2020 10.3 -3.7 3.2 0.0 0.0 3.2 51.8
5/8/2020 6.0 -2.8 2.3 0.0 0.0 3.2 65.5
5/7/2020 20.3 1.6 9.6 0.0 3.2 3.2 55.5
5/6/2020 14.8 2.9 8.6 0.0 3.6 3.2 47.4
5/5/2020 10.0 0.1 5.2 0.0 8.0 3.2 58.6
5/4/2020 12.3 4.1 7.7 0.0 11.8 3.2 65.0
5/3/2020 24.3 7.7 17.7 0.0 12.0 3.2 51.0
5/2/2020 22.3 6.7 15.0 0.0 14.0 3.2 63.6
5/1/2020 15.6 3.5 8.6 3.2 14.0 3.2 73.9